AQA weather

Araraquara Airport
Araraquara, São Paulo, Brazil

Public forecast

Using degrees Celsius for public forecast. Weather courtesy of forecast.io.

METAR (pilot weather report)

Report is more than 2 hours old.

Retrieved 2019/08/24 02:00 UTC (4 hours ago):

SBAQ 240200Z 15006KT CAVOK 18/12 Q1022

TAF (pilot weather forecast)

Forecast is more than 12 hours old.

Closest forecast is Leite Lopes Airport, 45.2 nm (83.7 km) NNE. Retrieved 2019/08/23 00:33 UTC (1 day ago):

TAF TAF SBRP 242220Z 2400/2412 17005KT CAVOK TX22/2400Z TN14/2408Z RMK PGQ